Terminal Aerodrome Forecast
Issued by NWS Paducah, KY

Home | Current Version | Previous Version | Text Only | Print | Product List | Glossary On
Versions: 1 2 3 4 5 6 7 8 9 10 11 12
000
FTUS43 KPAH 260007 AAC
TAFPAH
TAF AMD
KPAH 260007Z 2600/2624 26014G22KT P6SM VCTS BKN040CB
     FM260200 32007KT P6SM OVC008
     FM261800 02008KT P6SM BKN018=

USA.gov is the U.S. government's official web portal to all federal, state and local government web resources and services.